sensor_id;sensor_type;location;lat;lon;timestamp;pressure;altitude;pressure_sealevel;temperature;humidity
75895;BME280;64573;50.328;15.014;2023-08-20T00:02:20;99297.09;;;19.34;100.00
75895;BME280;64573;50.328;15.014;2023-08-20T00:04:48;99298.50;;;19.24;100.00
75895;BME280;64573;50.328;15.014;2023-08-20T00:07:14;99301.22;;;19.24;100.00
75895;BME280;64573;50.328;15.014;2023-08-20T00:09:41;99300.63;;;19.22;100.00
75895;BME280;64573;50.328;15.014;2023-08-20T00:12:06;99295.41;;;19.21;100.00
75895;BME280;64573;50.328;15.014;2023-08-20T00:14:52;99287.38;;;19.26;100.00
75895;BME280;64573;50.328;15.014;2023-08-20T00:17:18;99297.81;;;19.29;100.00
75895;BME280;64573;50.328;15.014;2023-08-20T00:19:44;99295.19;;;19.22;100.00
75895;BME280;64573;50.328;15.014;2023-08-20T00:22:10;99304.25;;;19.16;100.00
75895;BME280;64573;50.328;15.014;2023-08-20T00:24:36;99308.34;;;19.07;100.00
75895;BME280;64573;50.328;15.014;2023-08-20T00:27:01;99306.63;;;19.13;100.00
75895;BME280;64573;50.328;15.014;2023-08-20T00:29:26;99305.63;;;19.07;100.00
75895;BME280;64573;50.328;15.014;2023-08-20T00:31:52;99305.88;;;19.06;100.00
75895;BME280;64573;50.328;15.014;2023-08-20T00:34:17;99309.63;;;19.05;100.00
75895;BME280;64573;50.328;15.014;2023-08-20T00:36:42;99317.78;;;19.05;100.00
75895;BME280;64573;50.328;15.014;2023-08-20T00:39:07;99313.41;;;19.04;100.00
75895;BME280;64573;50.328;15.014;2023-08-20T00:41:33;99319.31;;;19.00;100.00
75895;BME280;64573;50.328;15.014;2023-08-20T00:43:58;99321.44;;;18.98;100.00
75895;BME280;64573;50.328;15.014;2023-08-20T00:46:23;99314.31;;;18.97;100.00
75895;BME280;64573;50.328;15.014;2023-08-20T00:48:49;99338.31;;;19.00;100.00
75895;BME280;64573;50.328;15.014;2023-08-20T00:51:14;99326.63;;;19.00;100.00
75895;BME280;64573;50.328;15.014;2023-08-20T00:53:40;99329.56;;;18.98;100.00
75895;BME280;64573;50.328;15.014;2023-08-20T00:56:05;99325.81;;;18.99;100.00
75895;BME280;64573;50.328;15.014;2023-08-20T00:58:30;99329.56;;;18.98;100.00
75895;BME280;64573;50.328;15.014;2023-08-20T01:00:56;99323.16;;;18.93;100.00
75895;BME280;64573;50.328;15.014;2023-08-20T01:03:21;99331.16;;;18.88;100.00
75895;BME280;64573;50.328;15.014;2023-08-20T01:05:52;99326.03;;;18.80;100.00
75895;BME280;64573;50.328;15.014;2023-08-20T01:08:35;99324.78;;;18.76;100.00
75895;BME280;64573;50.328;15.014;2023-08-20T01:11:11;99319.22;;;18.70;100.00
75895;BME280;64573;50.328;15.014;2023-08-20T01:13:37;99324.78;;;18.76;100.00
75895;BME280;64573;50.328;15.014;2023-08-20T01:16:03;99320.59;;;18.80;100.00
75895;BME280;64573;50.328;15.014;2023-08-20T01:18:28;99315.91;;;18.87;100.00
75895;BME280;64573;50.328;15.014;2023-08-20T01:21:11;99310.94;;;18.84;100.00
75895;BME280;64573;50.328;15.014;2023-08-20T01:23:51;99311.00;;;18.95;100.00
75895;BME280;64573;50.328;15.014;2023-08-20T01:26:40;99304.56;;;19.08;100.00
75895;BME280;64573;50.328;15.014;2023-08-20T01:29:10;99304.31;;;19.28;100.00
75895;BME280;64573;50.328;15.014;2023-08-20T01:31:37;99307.16;;;19.33;100.00
75895;BME280;64573;50.328;15.014;2023-08-20T01:34:03;99304.25;;;19.46;100.00
75895;BME280;64573;50.328;15.014;2023-08-20T01:36:29;99304.41;;;19.51;100.00
75895;BME280;64573;50.328;15.014;2023-08-20T01:38:54;99305.16;;;19.59;100.00
75895;BME280;64573;50.328;15.014;2023-08-20T01:41:19;99304.25;;;19.65;100.00
75895;BME280;64573;50.328;15.014;2023-08-20T01:43:45;99315.47;;;19.38;100.00
75895;BME280;64573;50.328;15.014;2023-08-20T01:46:10;99319.31;;;19.00;100.00
75895;BME280;64573;50.328;15.014;2023-08-20T01:48:35;99324.38;;;18.79;100.00
75895;BME280;64573;50.328;15.014;2023-08-20T01:51:01;99323.09;;;18.56;100.00
75895;BME280;64573;50.328;15.014;2023-08-20T01:53:27;99322.34;;;18.49;100.00
75895;BME280;64573;50.328;15.014;2023-08-20T01:55:52;99334.09;;;18.43;100.00
75895;BME280;64573;50.328;15.014;2023-08-20T01:58:17;99331.22;;;18.38;100.00
75895;BME280;64573;50.328;15.014;2023-08-20T02:00:45;99333.94;;;18.38;100.00
75895;BME280;64573;50.328;15.014;2023-08-20T02:03:10;99337.09;;;18.35;100.00
75895;BME280;64573;50.328;15.014;2023-08-20T02:05:35;99336.88;;;18.36;100.00
75895;BME280;64573;50.328;15.014;2023-08-20T02:08:01;99334.75;;;18.38;100.00
75895;BME280;64573;50.328;15.014;2023-08-20T02:10:26;99335.97;;;18.42;100.00
75895;BME280;64573;50.328;15.014;2023-08-20T02:12:51;99338.25;;;18.45;100.00
75895;BME280;64573;50.328;15.014;2023-08-20T02:15:16;99337.59;;;18.50;100.00
75895;BME280;64573;50.328;15.014;2023-08-20T02:17:42;99338.34;;;18.57;100.00
75895;BME280;64573;50.328;15.014;2023-08-20T02:20:07;99344.97;;;18.61;100.00
75895;BME280;64573;50.328;15.014;2023-08-20T02:22:35;99333.25;;;18.67;100.00
75895;BME280;64573;50.328;15.014;2023-08-20T02:25:00;99341.19;;;18.69;100.00
75895;BME280;64573;50.328;15.014;2023-08-20T02:27:26;99334.47;;;18.71;100.00
75895;BME280;64573;50.328;15.014;2023-08-20T02:29:51;99331.53;;;18.73;100.00
75895;BME280;64573;50.328;15.014;2023-08-20T02:32:16;99330.47;;;18.74;100.00
75895;BME280;64573;50.328;15.014;2023-08-20T02:34:42;99327.50;;;18.76;100.00
75895;BME280;64573;50.328;15.014;2023-08-20T02:37:07;99328.38;;;18.76;100.00
75895;BME280;64573;50.328;15.014;2023-08-20T02:39:32;99325.03;;;18.74;100.00
75895;BME280;64573;50.328;15.014;2023-08-20T02:41:58;99315.81;;;18.75;100.00
75895;BME280;64573;50.328;15.014;2023-08-20T02:44:23;99316.06;;;18.92;100.00
75895;BME280;64573;50.328;15.014;2023-08-20T02:46:48;99314.78;;;18.94;100.00
75895;BME280;64573;50.328;15.014;2023-08-20T02:49:14;99314.41;;;18.91;100.00
75895;BME280;64573;50.328;15.014;2023-08-20T02:51:40;99325.13;;;18.86;100.00
75895;BME280;64573;50.328;15.014;2023-08-20T02:54:06;99327.75;;;18.74;100.00
75895;BME280;64573;50.328;15.014;2023-08-20T02:56:32;99334.34;;;18.60;100.00
75895;BME280;64573;50.328;15.014;2023-08-20T02:58:57;99340.00;;;18.58;100.00
75895;BME280;64573;50.328;15.014;2023-08-20T03:01:25;99331.09;;;18.51;100.00
75895;BME280;64573;50.328;15.014;2023-08-20T03:03:51;99340.75;;;18.47;100.00
75895;BME280;64573;50.328;15.014;2023-08-20T03:06:16;99335.16;;;18.42;100.00
75895;BME280;64573;50.328;15.014;2023-08-20T03:08:42;99335.97;;;18.42;100.00
75895;BME280;64573;50.328;15.014;2023-08-20T03:11:07;99340.13;;;18.45;100.00
75895;BME280;64573;50.328;15.014;2023-08-20T03:13:33;99338.16;;;18.34;100.00
75895;BME280;64573;50.328;15.014;2023-08-20T03:15:58;99340.34;;;18.25;100.00
75895;BME280;64573;50.328;15.014;2023-08-20T03:18:23;99339.69;;;18.23;100.00
75895;BME280;64573;50.328;15.014;2023-08-20T03:20:49;99348.28;;;18.20;100.00
75895;BME280;64573;50.328;15.014;2023-08-20T03:23:14;99349.72;;;18.23;100.00
75895;BME280;64573;50.328;15.014;2023-08-20T03:25:39;99341.34;;;18.24;100.00
75895;BME280;64573;50.328;15.014;2023-08-20T03:28:05;99350.28;;;18.31;100.00
75895;BME280;64573;50.328;15.014;2023-08-20T03:30:30;99359.06;;;18.33;100.00
75895;BME280;64573;50.328;15.014;2023-08-20T03:32:56;99361.19;;;18.25;100.00
75895;BME280;64573;50.328;15.014;2023-08-20T03:35:22;99353.97;;;18.18;100.00
75895;BME280;64573;50.328;15.014;2023-08-20T03:37:47;99358.38;;;18.13;100.00
75895;BME280;64573;50.328;15.014;2023-08-20T03:40:13;99346.69;;;18.12;100.00
75895;BME280;64573;50.328;15.014;2023-08-20T03:42:38;99350.84;;;18.15;100.00
75895;BME280;64573;50.328;15.014;2023-08-20T03:45:04;99357.69;;;18.17;100.00
75895;BME280;64573;50.328;15.014;2023-08-20T03:47:30;99356.88;;;18.17;100.00
75895;BME280;64573;50.328;15.014;2023-08-20T03:49:55;99354.09;;;18.24;100.00
75895;BME280;64573;50.328;15.014;2023-08-20T03:52:20;99354.22;;;18.35;100.00
75895;BME280;64573;50.328;15.014;2023-08-20T03:54:46;99349.78;;;18.41;100.00
75895;BME280;64573;50.328;15.014;2023-08-20T03:57:11;99358.72;;;18.48;100.00
75895;BME280;64573;50.328;15.014;2023-08-20T03:59:36;99348.81;;;18.54;100.00
75895;BME280;64573;50.328;15.014;2023-08-20T04:02:02;99351.28;;;18.62;100.00
75895;BME280;64573;50.328;15.014;2023-08-20T04:04:27;99352.06;;;18.69;100.00
75895;BME280;64573;50.328;15.014;2023-08-20T04:06:53;99349.88;;;18.78;100.00
75895;BME280;64573;50.328;15.014;2023-08-20T04:09:18;99354.53;;;18.89;100.00
75895;BME280;64573;50.328;15.014;2023-08-20T04:11:44;99355.94;;;18.98;100.00
75895;BME280;64573;50.328;15.014;2023-08-20T04:14:09;99357.88;;;19.09;100.00
75895;BME280;64573;50.328;15.014;2023-08-20T04:16:34;99355.69;;;19.18;100.00
75895;BME280;64573;50.328;15.014;2023-08-20T04:19:00;99350.31;;;19.29;100.00
75895;BME280;64573;50.328;15.014;2023-08-20T04:21:25;99354.19;;;19.52;100.00
75895;BME280;64573;50.328;15.014;2023-08-20T04:23:50;99351.72;;;19.80;100.00
75895;BME280;64573;50.328;15.014;2023-08-20T04:26:16;99346.81;;;20.01;100.00
75895;BME280;64573;50.328;15.014;2023-08-20T04:28:41;99352.31;;;20.24;100.00
75895;BME280;64573;50.328;15.014;2023-08-20T04:31:06;99340.69;;;20.41;100.00
75895;BME280;64573;50.328;15.014;2023-08-20T04:33:32;99345.47;;;20.69;100.00
75895;BME280;64573;50.328;15.014;2023-08-20T04:38:26;99340.31;;;21.07;100.00
75895;BME280;64573;50.328;15.014;2023-08-20T04:40:51;99347.53;;;21.25;100.00
75895;BME280;64573;50.328;15.014;2023-08-20T04:43:17;99338.47;;;21.36;100.00
75895;BME280;64573;50.328;15.014;2023-08-20T04:45:42;99337.06;;;21.34;100.00
75895;BME280;64573;50.328;15.014;2023-08-20T04:48:08;99341.22;;;21.25;100.00
75895;BME280;64573;50.328;15.014;2023-08-20T04:50:33;99337.59;;;21.59;100.00
75895;BME280;64573;50.328;15.014;2023-08-20T04:52:59;99345.03;;;21.64;100.00
75895;BME280;64573;50.328;15.014;2023-08-20T04:55:25;99350.34;;;21.70;100.00
75895;BME280;64573;50.328;15.014;2023-08-20T04:57:51;99347.00;;;21.80;100.00
75895;BME280;64573;50.328;15.014;2023-08-20T05:00:17;99345.41;;;21.84;100.00
75895;BME280;64573;50.328;15.014;2023-08-20T05:02:42;99351.34;;;22.10;100.00
75895;BME280;64573;50.328;15.014;2023-08-20T05:05:08;99350.94;;;22.35;100.00
75895;BME280;64573;50.328;15.014;2023-08-20T05:07:33;99355.25;;;22.47;100.00
75895;BME280;64573;50.328;15.014;2023-08-20T05:09:58;99356.38;;;22.51;100.00
75895;BME280;64573;50.328;15.014;2023-08-20T05:12:24;99352.75;;;22.12;100.00
75895;BME280;64573;50.328;15.014;2023-08-20T05:14:49;99371.31;;;21.98;100.00
75895;BME280;64573;50.328;15.014;2023-08-20T05:17:14;99378.41;;;21.83;100.00
75895;BME280;64573;50.328;15.014;2023-08-20T05:19:39;99371.44;;;21.75;100.00
75895;BME280;64573;50.328;15.014;2023-08-20T05:22:05;99364.66;;;21.49;100.00
75895;BME280;64573;50.328;15.014;2023-08-20T05:24:30;99375.00;;;21.47;100.00
75895;BME280;64573;50.328;15.014;2023-08-20T05:27:08;99380.31;;;21.54;100.00
75895;BME280;64573;50.328;15.014;2023-08-20T05:29:35;99380.78;;;21.79;100.00
75895;BME280;64573;50.328;15.014;2023-08-20T05:32:00;99377.91;;;21.86;100.00
75895;BME280;64573;50.328;15.014;2023-08-20T05:34:26;99392.59;;;21.96;100.00
75895;BME280;64573;50.328;15.014;2023-08-20T05:36:51;99385.66;;;22.06;100.00
75895;BME280;64573;50.328;15.014;2023-08-20T05:39:16;99378.16;;;22.13;100.00
75895;BME280;64573;50.328;15.014;2023-08-20T05:41:42;99388.28;;;22.29;100.00
75895;BME280;64573;50.328;15.014;2023-08-20T05:44:07;99388.94;;;22.19;100.00
75895;BME280;64573;50.328;15.014;2023-08-20T05:46:32;99395.38;;;22.13;100.00
75895;BME280;64573;50.328;15.014;2023-08-20T05:48:58;99393.72;;;22.12;100.00
75895;BME280;64573;50.328;15.014;2023-08-20T05:51:23;99399.00;;;22.02;100.00
75895;BME280;64573;50.328;15.014;2023-08-20T05:53:48;99403.66;;;21.90;100.00
75895;BME280;64573;50.328;15.014;2023-08-20T05:56:14;99407.81;;;21.92;100.00
75895;BME280;64573;50.328;15.014;2023-08-20T05:58:39;99403.03;;;21.99;100.00
75895;BME280;64573;50.328;15.014;2023-08-20T06:01:04;99405.84;;;22.16;100.00
75895;BME280;64573;50.328;15.014;2023-08-20T06:03:30;99405.50;;;22.29;100.00
75895;BME280;64573;50.328;15.014;2023-08-20T06:05:57;99395.84;;;22.39;100.00
75895;BME280;64573;50.328;15.014;2023-08-20T06:08:23;99393.19;;;22.61;100.00
75895;BME280;64573;50.328;15.014;2023-08-20T06:10:48;99386.78;;;22.72;100.00
75895;BME280;64573;50.328;15.014;2023-08-20T06:13:14;99379.06;;;22.86;100.00
75895;BME280;64573;50.328;15.014;2023-08-20T06:15:39;99380.75;;;23.08;100.00
75895;BME280;64573;50.328;15.014;2023-08-20T06:18:04;99383.00;;;23.33;100.00
75895;BME280;64573;50.328;15.014;2023-08-20T06:20:30;99389.31;;;23.34;100.00
75895;BME280;64573;50.328;15.014;2023-08-20T06:22:55;99386.75;;;23.05;100.00
75895;BME280;64573;50.328;15.014;2023-08-20T06:25:20;99397.63;;;23.00;100.00
75895;BME280;64573;50.328;15.014;2023-08-20T06:27:46;99405.00;;;22.83;100.00
75895;BME280;64573;50.328;15.014;2023-08-20T06:30:11;99393.31;;;23.04;100.00
75895;BME280;64573;50.328;15.014;2023-08-20T06:32:37;99392.97;;;23.01;100.00
75895;BME280;64573;50.328;15.014;2023-08-20T06:35:02;99395.72;;;23.45;100.00
75895;BME280;64573;50.328;15.014;2023-08-20T06:37:27;99395.72;;;23.61;100.00
75895;BME280;64573;50.328;15.014;2023-08-20T06:39:53;99396.91;;;23.71;100.00
75895;BME280;64573;50.328;15.014;2023-08-20T06:42:18;99397.94;;;23.91;100.00
75895;BME280;64573;50.328;15.014;2023-08-20T06:44:44;99408.31;;;23.89;100.00
75895;BME280;64573;50.328;15.014;2023-08-20T06:47:09;99411.78;;;23.80;100.00
75895;BME280;64573;50.328;15.014;2023-08-20T06:49:34;99411.50;;;23.81;100.00
75895;BME280;64573;50.328;15.014;2023-08-20T06:51:59;99418.22;;;23.90;100.00
75895;BME280;64573;50.328;15.014;2023-08-20T06:54:25;99422.81;;;23.85;100.00
75895;BME280;64573;50.328;15.014;2023-08-20T06:56:50;99426.44;;;23.90;100.00
75895;BME280;64573;50.328;15.014;2023-08-20T06:59:15;99423.13;;;23.66;100.00
75895;BME280;64573;50.328;15.014;2023-08-20T07:01:41;99428.47;;;23.56;100.00
75895;BME280;64573;50.328;15.014;2023-08-20T07:04:07;99431.50;;;23.82;100.00
75895;BME280;64573;50.328;15.014;2023-08-20T07:06:32;99433.03;;;23.94;100.00
75895;BME280;64573;50.328;15.014;2023-08-20T07:08:57;99430.97;;;24.07;100.00
75895;BME280;64573;50.328;15.014;2023-08-20T07:11:23;99441.97;;;23.85;100.00
75895;BME280;64573;50.328;15.014;2023-08-20T07:13:48;99429.16;;;23.90;100.00
75895;BME280;64573;50.328;15.014;2023-08-20T07:16:13;99440.81;;;23.81;100.00
75895;BME280;64573;50.328;15.014;2023-08-20T07:18:39;99440.22;;;24.01;100.00
75895;BME280;64573;50.328;15.014;2023-08-20T07:21:04;99435.38;;;24.08;100.00
75895;BME280;64573;50.328;15.014;2023-08-20T07:23:29;99434.19;;;23.99;100.00
75895;BME280;64573;50.328;15.014;2023-08-20T07:26:09;99441.59;;;23.76;100.00
75895;BME280;64573;50.328;15.014;2023-08-20T07:28:35;99443.53;;;23.59;100.00
75895;BME280;64573;50.328;15.014;2023-08-20T07:31:20;99445.69;;;24.01;100.00
75895;BME280;64573;50.328;15.014;2023-08-20T07:33:49;99440.13;;;24.17;100.00
75895;BME280;64573;50.328;15.014;2023-08-20T07:36:15;99437.88;;;24.36;100.00
75895;BME280;64573;50.328;15.014;2023-08-20T07:38:40;99441.34;;;24.59;100.00
75895;BME280;64573;50.328;15.014;2023-08-20T07:41:08;99436.63;;;24.86;100.00
75895;BME280;64573;50.328;15.014;2023-08-20T07:43:33;99433.56;;;24.78;100.00
75895;BME280;64573;50.328;15.014;2023-08-20T07:45:59;99436.81;;;25.07;100.00
75895;BME280;64573;50.328;15.014;2023-08-20T07:48:24;99442.69;;;24.88;100.00
75895;BME280;64573;50.328;15.014;2023-08-20T07:50:49;99437.00;;;25.00;100.00
75895;BME280;64573;50.328;15.014;2023-08-20T07:53:15;99438.00;;;25.26;100.00
75895;BME280;64573;50.328;15.014;2023-08-20T07:55:40;99434.66;;;25.19;100.00
75895;BME280;64573;50.328;15.014;2023-08-20T07:58:05;99425.84;;;25.69;100.00
75895;BME280;64573;50.328;15.014;2023-08-20T08:00:31;99430.13;;;26.18;100.00
75895;BME280;64573;50.328;15.014;2023-08-20T08:02:56;99428.78;;;26.30;100.00
75895;BME280;64573;50.328;15.014;2023-08-20T08:05:21;99432.38;;;25.53;100.00
75895;BME280;64573;50.328;15.014;2023-08-20T08:07:46;99442.66;;;25.78;100.00
75895;BME280;64573;50.328;15.014;2023-08-20T08:10:12;99430.69;;;26.25;100.00
75895;BME280;64573;50.328;15.014;2023-08-20T08:12:37;99426.06;;;26.81;100.00
75895;BME280;64573;50.328;15.014;2023-08-20T08:15:03;99426.34;;;26.54;100.00
75895;BME280;64573;50.328;15.014;2023-08-20T08:17:28;99423.81;;;27.09;100.00
75895;BME280;64573;50.328;15.014;2023-08-20T08:19:53;99427.09;;;27.21;100.00
75895;BME280;64573;50.328;15.014;2023-08-20T08:22:20;99415.16;;;27.51;100.00
75895;BME280;64573;50.328;15.014;2023-08-20T08:24:45;99423.47;;;27.36;100.00
75895;BME280;64573;50.328;15.014;2023-08-20T08:27:11;99429.97;;;27.70;100.00
75895;BME280;64573;50.328;15.014;2023-08-20T08:29:36;99432.78;;;28.10;100.00
75895;BME280;64573;50.328;15.014;2023-08-20T08:32:02;99435.44;;;28.30;100.00
75895;BME280;64573;50.328;15.014;2023-08-20T08:34:27;99432.47;;;29.19;100.00
75895;BME280;64573;50.328;15.014;2023-08-20T08:36:52;99443.28;;;30.30;100.00
75895;BME280;64573;50.328;15.014;2023-08-20T08:39:18;99441.44;;;31.64;100.00
75895;BME280;64573;50.328;15.014;2023-08-20T08:41:45;99444.09;;;32.91;100.00
75895;BME280;64573;50.328;15.014;2023-08-20T08:46:43;99442.16;;;31.28;100.00
75895;BME280;64573;50.328;15.014;2023-08-20T08:49:09;99446.44;;;30.74;100.00
75895;BME280;64573;50.328;15.014;2023-08-20T08:51:36;99448.84;;;30.62;100.00
75895;BME280;64573;50.328;15.014;2023-08-20T08:54:02;99444.25;;;31.04;100.00
75895;BME280;64573;50.328;15.014;2023-08-20T08:56:28;99444.94;;;30.63;100.00
75895;BME280;64573;50.328;15.014;2023-08-20T08:58:54;99437.09;;;30.70;100.00
75895;BME280;64573;50.328;15.014;2023-08-20T09:01:19;99439.16;;;32.07;100.00
75895;BME280;64573;50.328;15.014;2023-08-20T09:03:45;99432.78;;;32.07;100.00
75895;BME280;64573;50.328;15.014;2023-08-20T09:06:10;99434.31;;;32.13;100.00
75895;BME280;64573;50.328;15.014;2023-08-20T09:08:36;99440.13;;;29.99;100.00
75895;BME280;64573;50.328;15.014;2023-08-20T09:11:01;99435.72;;;30.35;100.00
75895;BME280;64573;50.328;15.014;2023-08-20T09:13:35;99428.63;;;29.67;100.00
75895;BME280;64573;50.328;15.014;2023-08-20T09:16:03;99425.03;;;29.43;100.00
75895;BME280;64573;50.328;15.014;2023-08-20T09:18:29;99432.13;;;30.16;100.00
75895;BME280;64573;50.328;15.014;2023-08-20T09:20:57;99423.88;;;30.67;100.00
75895;BME280;64573;50.328;15.014;2023-08-20T09:23:22;99440.44;;;31.33;100.00
75895;BME280;64573;50.328;15.014;2023-08-20T09:25:47;99446.25;;;31.72;100.00
75895;BME280;64573;50.328;15.014;2023-08-20T09:28:13;99448.13;;;32.41;100.00
75895;BME280;64573;50.328;15.014;2023-08-20T09:30:39;99457.22;;;32.19;100.00
75895;BME280;64573;50.328;15.014;2023-08-20T09:33:12;99449.28;;;32.26;100.00
75895;BME280;64573;50.328;15.014;2023-08-20T09:35:51;99454.31;;;33.05;100.00
75895;BME280;64573;50.328;15.014;2023-08-20T09:38:19;99449.97;;;33.92;100.00
75895;BME280;64573;50.328;15.014;2023-08-20T09:40:54;99449.19;;;34.52;100.00
75895;BME280;64573;50.328;15.014;2023-08-20T09:43:24;99450.22;;;35.29;93.88
75895;BME280;64573;50.328;15.014;2023-08-20T09:45:54;99453.09;;;34.16;100.00
75895;BME280;64573;50.328;15.014;2023-08-20T09:48:20;99440.56;;;33.70;100.00
75895;BME280;64573;50.328;15.014;2023-08-20T09:50:49;99442.78;;;34.08;100.00
75895;BME280;64573;50.328;15.014;2023-08-20T09:53:35;99440.31;;;34.15;100.00
75895;BME280;64573;50.328;15.014;2023-08-20T09:56:24;99440.19;;;34.55;97.15
75895;BME280;64573;50.328;15.014;2023-08-20T09:58:53;99446.56;;;34.12;93.61
75895;BME280;64573;50.328;15.014;2023-08-20T10:01:19;99441.19;;;33.28;100.00
75895;BME280;64573;50.328;15.014;2023-08-20T10:03:45;99440.47;;;33.13;100.00
75895;BME280;64573;50.328;15.014;2023-08-20T10:06:11;99436.31;;;32.80;100.00
75895;BME280;64573;50.328;15.014;2023-08-20T10:08:36;99433.50;;;33.25;100.00
75895;BME280;64573;50.328;15.014;2023-08-20T10:11:02;99443.97;;;32.52;100.00
75895;BME280;64573;50.328;15.014;2023-08-20T10:13:27;99458.66;;;33.19;100.00
75895;BME280;64573;50.328;15.014;2023-08-20T10:15:53;99460.16;;;32.81;100.00
75895;BME280;64573;50.328;15.014;2023-08-20T10:18:21;99465.00;;;31.20;100.00
75895;BME280;64573;50.328;15.014;2023-08-20T10:20:50;99462.41;;;30.45;100.00
75895;BME280;64573;50.328;15.014;2023-08-20T10:23:20;99451.75;;;31.03;100.00
75895;BME280;64573;50.328;15.014;2023-08-20T10:25:45;99452.75;;;31.26;100.00
75895;BME280;64573;50.328;15.014;2023-08-20T10:28:22;99455.38;;;31.18;100.00
75895;BME280;64573;50.328;15.014;2023-08-20T10:31:07;99447.75;;;32.20;100.00
75895;BME280;64573;50.328;15.014;2023-08-20T10:33:38;99446.75;;;32.74;100.00
75895;BME280;64573;50.328;15.014;2023-08-20T10:38:37;99441.94;;;33.90;100.00
75895;BME280;64573;50.328;15.014;2023-08-20T10:41:06;99444.84;;;35.15;97.70
75895;BME280;64573;50.328;15.014;2023-08-20T10:43:47;99444.81;;;35.24;90.38
75895;BME280;64573;50.328;15.014;2023-08-20T10:46:18;99445.41;;;35.47;90.73
75895;BME280;64573;50.328;15.014;2023-08-20T10:48:58;99448.69;;;36.08;83.75
75895;BME280;64573;50.328;15.014;2023-08-20T10:56:45;99442.31;;;35.99;84.48
75895;BME280;64573;50.328;15.014;2023-08-20T11:01:52;99445.31;;;35.64;89.12
75895;BME280;64573;50.328;15.014;2023-08-20T11:04:19;99434.44;;;36.63;84.98
75895;BME280;64573;50.328;15.014;2023-08-20T11:06:46;99433.59;;;37.41;72.90
75895;BME280;64573;50.328;15.014;2023-08-20T11:09:14;99428.91;;;36.34;78.96
75895;BME280;64573;50.328;15.014;2023-08-20T11:11:41;99429.53;;;36.93;77.93
75895;BME280;64573;50.328;15.014;2023-08-20T11:14:08;99429.66;;;36.64;81.69
75895;BME280;64573;50.328;15.014;2023-08-20T11:16:37;99423.34;;;37.70;75.75
75895;BME280;64573;50.328;15.014;2023-08-20T11:19:03;99424.28;;;37.37;77.27
75895;BME280;64573;50.328;15.014;2023-08-20T11:21:40;99426.81;;;38.03;70.95
75895;BME280;64573;50.328;15.014;2023-08-20T11:24:07;99427.50;;;38.25;64.90
75895;BME280;64573;50.328;15.014;2023-08-20T11:26:33;99422.56;;;37.82;70.25
75895;BME280;64573;50.328;15.014;2023-08-20T11:29:08;99427.66;;;37.55;68.38
75895;BME280;64573;50.328;15.014;2023-08-20T11:31:38;99429.56;;;38.16;65.31
75895;BME280;64573;50.328;15.014;2023-08-20T11:34:04;99426.03;;;37.78;67.18
75895;BME280;64573;50.328;15.014;2023-08-20T11:36:29;99419.41;;;37.83;64.17
75895;BME280;64573;50.328;15.014;2023-08-20T11:38:55;99423.00;;;37.84;64.81
75895;BME280;64573;50.328;15.014;2023-08-20T11:41:21;99416.78;;;37.29;63.55
75895;BME280;64573;50.328;15.014;2023-08-20T11:43:51;99418.69;;;37.62;68.38
75895;BME280;64573;50.328;15.014;2023-08-20T11:46:18;99422.81;;;38.17;65.03
75895;BME280;64573;50.328;15.014;2023-08-20T11:49:05;99423.47;;;38.38;67.16
75895;BME280;64573;50.328;15.014;2023-08-20T11:54:00;99416.06;;;38.18;59.10
75895;BME280;64573;50.328;15.014;2023-08-20T11:56:26;99413.41;;;37.23;59.12
75895;BME280;64573;50.328;15.014;2023-08-20T11:58:52;99411.09;;;37.50;63.35
75895;BME280;64573;50.328;15.014;2023-08-20T12:01:18;99416.44;;;38.72;57.06
75895;BME280;64573;50.328;15.014;2023-08-20T12:03:44;99413.44;;;39.56;55.93
75895;BME280;64573;50.328;15.014;2023-08-20T12:06:20;99409.63;;;39.01;58.81
75895;BME280;64573;50.328;15.014;2023-08-20T12:08:45;99404.38;;;38.28;60.77
75895;BME280;64573;50.328;15.014;2023-08-20T12:11:12;99410.38;;;36.50;68.91
75895;BME280;64573;50.328;15.014;2023-08-20T12:13:37;99398.94;;;37.21;69.93
75895;BME280;64573;50.328;15.014;2023-08-20T12:16:02;99398.47;;;37.93;66.02
75895;BME280;64573;50.328;15.014;2023-08-20T12:18:28;99394.78;;;38.57;57.67
75895;BME280;64573;50.328;15.014;2023-08-20T12:20:55;99396.78;;;39.00;57.42
75895;BME280;64573;50.328;15.014;2023-08-20T12:23:21;99404.56;;;39.38;53.58
75895;BME280;64573;50.328;15.014;2023-08-20T12:25:50;99392.97;;;38.77;57.41
75895;BME280;64573;50.328;15.014;2023-08-20T12:28:16;99390.31;;;37.88;60.86
75895;BME280;64573;50.328;15.014;2023-08-20T12:30:41;99384.19;;;37.82;61.84
75895;BME280;64573;50.328;15.014;2023-08-20T12:33:07;99385.06;;;38.39;59.49
75895;BME280;64573;50.328;15.014;2023-08-20T12:38:01;99388.66;;;39.58;55.97
75895;BME280;64573;50.328;15.014;2023-08-20T12:40:28;99393.41;;;39.58;50.08
75895;BME280;64573;50.328;15.014;2023-08-20T12:42:53;99391.47;;;39.42;47.68
75895;BME280;64573;50.328;15.014;2023-08-20T12:45:19;99390.16;;;39.72;48.05
75895;BME280;64573;50.328;15.014;2023-08-20T12:47:45;99392.44;;;39.66;48.99
75895;BME280;64573;50.328;15.014;2023-08-20T12:50:10;99389.53;;;39.78;52.38
75895;BME280;64573;50.328;15.014;2023-08-20T12:52:38;99385.66;;;40.21;49.70
75895;BME280;64573;50.328;15.014;2023-08-20T12:55:04;99383.81;;;40.10;47.79
75895;BME280;64573;50.328;15.014;2023-08-20T12:57:30;99379.66;;;40.62;43.36
75895;BME280;64573;50.328;15.014;2023-08-20T12:59:55;99368.59;;;40.92;42.21
75895;BME280;64573;50.328;15.014;2023-08-20T13:02:20;99374.28;;;40.53;40.88